sensor_id;sensor_type;location;lat;lon;timestamp;P1;durP1;ratioP1;P2;durP2;ratioP2
15110;SDS011;7656;51.954;7.998;2023-02-10T00:01:17;20.40;;;12.87;;
15110;SDS011;7656;51.954;7.998;2023-02-10T00:05:44;22.47;;;13.23;;
15110;SDS011;7656;51.954;7.998;2023-02-10T00:10:05;22.43;;;13.80;;
15110;SDS011;7656;51.954;7.998;2023-02-10T00:14:27;28.20;;;12.67;;
15110;SDS011;7656;51.954;7.998;2023-02-10T00:18:49;22.07;;;12.73;;
15110;SDS011;7656;51.954;7.998;2023-02-10T00:23:10;22.03;;;12.83;;
15110;SDS011;7656;51.954;7.998;2023-02-10T00:27:32;26.27;;;12.60;;
15110;SDS011;7656;51.954;7.998;2023-02-10T00:31:53;23.70;;;13.23;;
15110;SDS011;7656;51.954;7.998;2023-02-10T00:36:14;27.40;;;15.80;;
15110;SDS011;7656;51.954;7.998;2023-02-10T00:40:36;20.10;;;12.63;;
15110;SDS011;7656;51.954;7.998;2023-02-10T00:44:57;24.77;;;14.20;;
15110;SDS011;7656;51.954;7.998;2023-02-10T00:49:18;27.10;;;14.70;;
15110;SDS011;7656;51.954;7.998;2023-02-10T00:53:39;25.00;;;13.30;;
15110;SDS011;7656;51.954;7.998;2023-02-10T00:58:01;24.30;;;13.73;;
15110;SDS011;7656;51.954;7.998;2023-02-10T01:02:22;25.77;;;14.73;;
15110;SDS011;7656;51.954;7.998;2023-02-10T01:06:43;23.30;;;13.50;;
15110;SDS011;7656;51.954;7.998;2023-02-10T01:11:05;24.53;;;13.77;;
15110;SDS011;7656;51.954;7.998;2023-02-10T01:15:29;25.20;;;14.17;;
15110;SDS011;7656;51.954;7.998;2023-02-10T01:19:51;25.60;;;14.27;;
15110;SDS011;7656;51.954;7.998;2023-02-10T01:24:12;28.27;;;14.47;;
15110;SDS011;7656;51.954;7.998;2023-02-10T01:28:33;26.83;;;14.33;;
15110;SDS011;7656;51.954;7.998;2023-02-10T01:32:59;26.47;;;14.13;;
15110;SDS011;7656;51.954;7.998;2023-02-10T01:37:20;24.77;;;13.57;;
15110;SDS011;7656;51.954;7.998;2023-02-10T01:41:43;25.60;;;13.33;;
15110;SDS011;7656;51.954;7.998;2023-02-10T01:46:04;25.17;;;13.33;;
15110;SDS011;7656;51.954;7.998;2023-02-10T01:50:27;23.17;;;13.30;;
15110;SDS011;7656;51.954;7.998;2023-02-10T01:54:59;24.77;;;14.23;;
15110;SDS011;7656;51.954;7.998;2023-02-10T01:59:26;29.10;;;13.47;;
15110;SDS011;7656;51.954;7.998;2023-02-10T02:03:52;23.40;;;14.60;;
15110;SDS011;7656;51.954;7.998;2023-02-10T02:08:21;26.40;;;13.23;;
15110;SDS011;7656;51.954;7.998;2023-02-10T02:12:55;23.07;;;12.83;;
15110;SDS011;7656;51.954;7.998;2023-02-10T02:31:58;23.97;;;12.57;;
15110;SDS011;7656;51.954;7.998;2023-02-10T02:36:26;22.47;;;13.20;;
15110;SDS011;7656;51.954;7.998;2023-02-10T02:40:52;21.83;;;13.30;;
15110;SDS011;7656;51.954;7.998;2023-02-10T02:45:20;26.20;;;14.10;;
15110;SDS011;7656;51.954;7.998;2023-02-10T02:59:25;24.67;;;12.80;;
15110;SDS011;7656;51.954;7.998;2023-02-10T03:04:15;26.87;;;13.03;;
15110;SDS011;7656;51.954;7.998;2023-02-10T03:08:38;22.20;;;13.60;;
15110;SDS011;7656;51.954;7.998;2023-02-10T03:13:00;28.57;;;13.73;;
15110;SDS011;7656;51.954;7.998;2023-02-10T03:17:22;25.10;;;14.43;;
15110;SDS011;7656;51.954;7.998;2023-02-10T03:21:43;27.77;;;13.10;;
15110;SDS011;7656;51.954;7.998;2023-02-10T03:26:04;21.47;;;12.30;;
15110;SDS011;7656;51.954;7.998;2023-02-10T03:30:25;24.00;;;13.13;;
15110;SDS011;7656;51.954;7.998;2023-02-10T03:34:46;23.70;;;12.10;;
15110;SDS011;7656;51.954;7.998;2023-02-10T03:39:07;23.97;;;14.20;;
15110;SDS011;7656;51.954;7.998;2023-02-10T03:43:29;25.97;;;13.37;;
15110;SDS011;7656;51.954;7.998;2023-02-10T03:47:50;25.40;;;13.60;;
15110;SDS011;7656;51.954;7.998;2023-02-10T03:52:11;25.47;;;12.27;;
15110;SDS011;7656;51.954;7.998;2023-02-10T03:56:32;25.57;;;12.33;;
15110;SDS011;7656;51.954;7.998;2023-02-10T04:00:53;23.73;;;14.13;;
15110;SDS011;7656;51.954;7.998;2023-02-10T04:05:14;24.50;;;13.83;;
15110;SDS011;7656;51.954;7.998;2023-02-10T04:09:35;24.73;;;14.03;;
15110;SDS011;7656;51.954;7.998;2023-02-10T04:13:56;27.10;;;14.63;;
15110;SDS011;7656;51.954;7.998;2023-02-10T04:18:17;23.77;;;13.43;;
15110;SDS011;7656;51.954;7.998;2023-02-10T04:22:38;23.70;;;14.73;;
15110;SDS011;7656;51.954;7.998;2023-02-10T04:26:59;27.73;;;14.47;;
15110;SDS011;7656;51.954;7.998;2023-02-10T04:31:21;24.60;;;14.40;;
15110;SDS011;7656;51.954;7.998;2023-02-10T04:35:42;26.17;;;13.87;;
15110;SDS011;7656;51.954;7.998;2023-02-10T04:40:04;29.47;;;15.83;;
15110;SDS011;7656;51.954;7.998;2023-02-10T04:44:25;29.97;;;13.97;;
15110;SDS011;7656;51.954;7.998;2023-02-10T04:48:47;29.83;;;14.43;;
15110;SDS011;7656;51.954;7.998;2023-02-10T04:53:08;25.93;;;14.40;;
15110;SDS011;7656;51.954;7.998;2023-02-10T04:57:29;24.67;;;13.87;;
15110;SDS011;7656;51.954;7.998;2023-02-10T05:01:51;32.63;;;16.20;;
15110;SDS011;7656;51.954;7.998;2023-02-10T05:06:13;26.60;;;15.33;;
15110;SDS011;7656;51.954;7.998;2023-02-10T05:10:35;28.67;;;15.10;;
15110;SDS011;7656;51.954;7.998;2023-02-10T05:14:56;28.57;;;15.83;;
15110;SDS011;7656;51.954;7.998;2023-02-10T05:19:17;33.60;;;16.87;;
15110;SDS011;7656;51.954;7.998;2023-02-10T05:23:38;27.20;;;15.00;;
15110;SDS011;7656;51.954;7.998;2023-02-10T05:28:00;33.37;;;16.37;;
15110;SDS011;7656;51.954;7.998;2023-02-10T05:32:21;30.40;;;15.60;;
15110;SDS011;7656;51.954;7.998;2023-02-10T05:36:42;35.40;;;16.70;;
15110;SDS011;7656;51.954;7.998;2023-02-10T05:41:04;40.00;;;17.87;;
15110;SDS011;7656;51.954;7.998;2023-02-10T05:45:25;36.47;;;17.47;;
15110;SDS011;7656;51.954;7.998;2023-02-10T05:49:46;38.77;;;18.53;;
15110;SDS011;7656;51.954;7.998;2023-02-10T05:54:07;33.60;;;17.97;;
15110;SDS011;7656;51.954;7.998;2023-02-10T05:58:29;36.13;;;18.13;;
15110;SDS011;7656;51.954;7.998;2023-02-10T06:02:52;29.47;;;16.47;;
15110;SDS011;7656;51.954;7.998;2023-02-10T06:07:13;31.93;;;17.50;;
15110;SDS011;7656;51.954;7.998;2023-02-10T06:11:36;30.27;;;17.13;;
15110;SDS011;7656;51.954;7.998;2023-02-10T06:15:57;31.53;;;17.17;;
15110;SDS011;7656;51.954;7.998;2023-02-10T06:20:18;32.30;;;16.03;;
15110;SDS011;7656;51.954;7.998;2023-02-10T06:24:39;37.67;;;16.53;;
15110;SDS011;7656;51.954;7.998;2023-02-10T06:29:02;29.47;;;17.90;;
15110;SDS011;7656;51.954;7.998;2023-02-10T06:33:23;32.80;;;15.87;;
15110;SDS011;7656;51.954;7.998;2023-02-10T06:37:44;32.73;;;17.07;;
15110;SDS011;7656;51.954;7.998;2023-02-10T06:42:05;33.33;;;17.30;;
15110;SDS011;7656;51.954;7.998;2023-02-10T06:46:26;34.07;;;17.40;;
15110;SDS011;7656;51.954;7.998;2023-02-10T06:50:47;28.60;;;16.17;;
15110;SDS011;7656;51.954;7.998;2023-02-10T06:55:08;29.03;;;17.57;;
15110;SDS011;7656;51.954;7.998;2023-02-10T06:59:31;35.13;;;17.97;;
15110;SDS011;7656;51.954;7.998;2023-02-10T07:03:54;31.83;;;16.33;;
15110;SDS011;7656;51.954;7.998;2023-02-10T07:08:15;32.23;;;16.23;;
15110;SDS011;7656;51.954;7.998;2023-02-10T07:12:37;34.23;;;17.63;;
15110;SDS011;7656;51.954;7.998;2023-02-10T07:16:58;31.50;;;17.50;;
15110;SDS011;7656;51.954;7.998;2023-02-10T07:21:19;32.77;;;17.97;;
15110;SDS011;7656;51.954;7.998;2023-02-10T07:25:40;34.50;;;20.00;;
15110;SDS011;7656;51.954;7.998;2023-02-10T07:30:01;38.07;;;18.33;;
15110;SDS011;7656;51.954;7.998;2023-02-10T07:34:23;35.50;;;18.60;;
15110;SDS011;7656;51.954;7.998;2023-02-10T07:38:45;36.10;;;19.50;;
15110;SDS011;7656;51.954;7.998;2023-02-10T07:43:06;36.80;;;18.63;;
15110;SDS011;7656;51.954;7.998;2023-02-10T07:47:53;34.70;;;18.70;;
15110;SDS011;7656;51.954;7.998;2023-02-10T07:52:14;36.10;;;18.17;;
15110;SDS011;7656;51.954;7.998;2023-02-10T07:56:35;36.07;;;18.20;;
15110;SDS011;7656;51.954;7.998;2023-02-10T08:00:57;36.83;;;19.07;;
15110;SDS011;7656;51.954;7.998;2023-02-10T08:05:18;35.17;;;18.53;;
15110;SDS011;7656;51.954;7.998;2023-02-10T08:09:39;36.87;;;18.87;;
15110;SDS011;7656;51.954;7.998;2023-02-10T08:14:00;36.80;;;19.07;;
15110;SDS011;7656;51.954;7.998;2023-02-10T08:18:22;34.80;;;18.23;;
15110;SDS011;7656;51.954;7.998;2023-02-10T08:22:44;32.20;;;17.80;;
15110;SDS011;7656;51.954;7.998;2023-02-10T08:27:05;29.53;;;17.50;;
15110;SDS011;7656;51.954;7.998;2023-02-10T08:31:26;37.87;;;19.53;;
15110;SDS011;7656;51.954;7.998;2023-02-10T08:35:48;36.23;;;18.20;;
15110;SDS011;7656;51.954;7.998;2023-02-10T08:40:09;36.33;;;18.07;;
15110;SDS011;7656;51.954;7.998;2023-02-10T08:44:30;36.77;;;18.87;;
15110;SDS011;7656;51.954;7.998;2023-02-10T08:48:52;39.07;;;19.33;;
15110;SDS011;7656;51.954;7.998;2023-02-10T08:53:13;40.87;;;18.00;;
15110;SDS011;7656;51.954;7.998;2023-02-10T08:57:34;36.47;;;18.50;;
15110;SDS011;7656;51.954;7.998;2023-02-10T09:01:57;37.30;;;19.13;;
15110;SDS011;7656;51.954;7.998;2023-02-10T09:06:19;40.90;;;20.13;;
15110;SDS011;7656;51.954;7.998;2023-02-10T09:10:50;38.97;;;18.17;;
15110;SDS011;7656;51.954;7.998;2023-02-10T09:15:11;43.17;;;19.77;;
15110;SDS011;7656;51.954;7.998;2023-02-10T09:19:32;38.63;;;20.07;;
15110;SDS011;7656;51.954;7.998;2023-02-10T09:23:57;42.70;;;20.93;;
15110;SDS011;7656;51.954;7.998;2023-02-10T09:28:18;47.33;;;20.90;;
15110;SDS011;7656;51.954;7.998;2023-02-10T09:32:39;47.23;;;20.87;;
15110;SDS011;7656;51.954;7.998;2023-02-10T09:37:00;40.27;;;19.70;;
15110;SDS011;7656;51.954;7.998;2023-02-10T09:45:59;43.80;;;21.80;;
15110;SDS011;7656;51.954;7.998;2023-02-10T09:55:11;40.83;;;21.53;;
15110;SDS011;7656;51.954;7.998;2023-02-10T09:59:36;42.90;;;22.23;;
15110;SDS011;7656;51.954;7.998;2023-02-10T10:03:59;38.40;;;21.37;;
15110;SDS011;7656;51.954;7.998;2023-02-10T10:08:34;36.97;;;21.37;;
15110;SDS011;7656;51.954;7.998;2023-02-10T10:13:23;35.27;;;21.10;;
15110;SDS011;7656;51.954;7.998;2023-02-10T10:32:32;34.10;;;18.43;;
15110;SDS011;7656;51.954;7.998;2023-02-10T10:37:01;35.60;;;19.63;;
15110;SDS011;7656;51.954;7.998;2023-02-10T10:41:33;32.70;;;19.47;;
15110;SDS011;7656;51.954;7.998;2023-02-10T10:45:59;34.43;;;21.23;;
15110;SDS011;7656;51.954;7.998;2023-02-10T10:50:27;32.00;;;19.47;;
15110;SDS011;7656;51.954;7.998;2023-02-10T10:54:48;35.90;;;19.27;;
15110;SDS011;7656;51.954;7.998;2023-02-10T11:03:34;33.60;;;19.13;;
15110;SDS011;7656;51.954;7.998;2023-02-10T11:07:55;33.83;;;18.20;;
15110;SDS011;7656;51.954;7.998;2023-02-10T11:12:21;28.23;;;17.90;;
15110;SDS011;7656;51.954;7.998;2023-02-10T11:16:58;30.70;;;16.30;;
15110;SDS011;7656;51.954;7.998;2023-02-10T11:21:32;35.33;;;17.70;;
15110;SDS011;7656;51.954;7.998;2023-02-10T11:26:03;25.40;;;15.73;;
15110;SDS011;7656;51.954;7.998;2023-02-10T11:35:01;29.17;;;17.40;;
15110;SDS011;7656;51.954;7.998;2023-02-10T11:43:53;32.83;;;17.87;;
15110;SDS011;7656;51.954;7.998;2023-02-10T11:48:18;28.80;;;16.40;;
15110;SDS011;7656;51.954;7.998;2023-02-10T11:52:42;25.83;;;15.67;;
15110;SDS011;7656;51.954;7.998;2023-02-10T12:02:17;24.93;;;15.07;;
15110;SDS011;7656;51.954;7.998;2023-02-10T12:16:48;30.90;;;14.47;;
15110;SDS011;7656;51.954;7.998;2023-02-10T12:26:05;25.97;;;15.80;;
15110;SDS011;7656;51.954;7.998;2023-02-10T12:30:52;26.43;;;15.20;;
15110;SDS011;7656;51.954;7.998;2023-02-10T12:50:45;24.83;;;15.67;;
15110;SDS011;7656;51.954;7.998;2023-02-10T13:00:27;26.90;;;15.90;;
15110;SDS011;7656;51.954;7.998;2023-02-10T13:05:00;24.97;;;15.13;;
15110;SDS011;7656;51.954;7.998;2023-02-10T13:09:32;22.53;;;14.27;;
15110;SDS011;7656;51.954;7.998;2023-02-10T13:14:08;25.80;;;15.23;;
15110;SDS011;7656;51.954;7.998;2023-02-10T13:18:43;23.60;;;15.00;;
15110;SDS011;7656;51.954;7.998;2023-02-10T13:27:46;21.17;;;14.33;;
15110;SDS011;7656;51.954;7.998;2023-02-10T13:32:51;23.17;;;14.97;;
15110;SDS011;7656;51.954;7.998;2023-02-10T13:37:35;25.13;;;15.97;;
15110;SDS011;7656;51.954;7.998;2023-02-10T13:42:09;25.73;;;14.57;;
15110;SDS011;7656;51.954;7.998;2023-02-10T13:46:43;25.27;;;14.70;;
15110;SDS011;7656;51.954;7.998;2023-02-10T13:51:10;25.27;;;15.70;;
15110;SDS011;7656;51.954;7.998;2023-02-10T14:04:52;24.83;;;14.97;;
15110;SDS011;7656;51.954;7.998;2023-02-10T14:09:19;29.23;;;15.73;;
15110;SDS011;7656;51.954;7.998;2023-02-10T14:13:56;24.97;;;14.37;;
15110;SDS011;7656;51.954;7.998;2023-02-10T14:18:26;25.00;;;15.03;;
15110;SDS011;7656;51.954;7.998;2023-02-10T14:22:55;28.13;;;14.77;;
15110;SDS011;7656;51.954;7.998;2023-02-10T14:27:18;24.67;;;14.27;;
15110;SDS011;7656;51.954;7.998;2023-02-10T14:31:40;23.90;;;14.57;;
15110;SDS011;7656;51.954;7.998;2023-02-10T14:36:04;24.43;;;14.27;;
15110;SDS011;7656;51.954;7.998;2023-02-10T14:40:36;24.90;;;14.97;;
15110;SDS011;7656;51.954;7.998;2023-02-10T14:44:58;28.73;;;14.77;;
15110;SDS011;7656;51.954;7.998;2023-02-10T14:49:23;22.63;;;13.67;;
15110;SDS011;7656;51.954;7.998;2023-02-10T14:53:45;27.90;;;14.77;;
15110;SDS011;7656;51.954;7.998;2023-02-10T14:58:14;29.50;;;15.10;;
15110;SDS011;7656;51.954;7.998;2023-02-10T15:02:45;26.33;;;15.37;;
15110;SDS011;7656;51.954;7.998;2023-02-10T15:07:14;29.13;;;15.83;;
15110;SDS011;7656;51.954;7.998;2023-02-10T15:11:41;26.17;;;15.60;;
15110;SDS011;7656;51.954;7.998;2023-02-10T15:16:25;27.20;;;15.03;;
15110;SDS011;7656;51.954;7.998;2023-02-10T15:20:51;24.40;;;15.07;;
15110;SDS011;7656;51.954;7.998;2023-02-10T15:29:50;28.10;;;15.30;;
15110;SDS011;7656;51.954;7.998;2023-02-10T15:34:22;23.57;;;14.50;;
15110;SDS011;7656;51.954;7.998;2023-02-10T15:38:52;23.23;;;13.90;;
15110;SDS011;7656;51.954;7.998;2023-02-10T15:43:24;22.80;;;14.00;;
15110;SDS011;7656;51.954;7.998;2023-02-10T15:48:09;20.37;;;12.63;;
15110;SDS011;7656;51.954;7.998;2023-02-10T15:52:33;23.30;;;13.07;;
15110;SDS011;7656;51.954;7.998;2023-02-10T15:57:04;21.40;;;13.03;;
15110;SDS011;7656;51.954;7.998;2023-02-10T16:01:26;23.40;;;13.23;;
15110;SDS011;7656;51.954;7.998;2023-02-10T16:05:47;25.73;;;12.70;;
15110;SDS011;7656;51.954;7.998;2023-02-10T16:10:19;22.13;;;13.07;;
15110;SDS011;7656;51.954;7.998;2023-02-10T16:14:44;19.43;;;12.30;;
15110;SDS011;7656;51.954;7.998;2023-02-10T16:19:06;22.50;;;14.13;;
15110;SDS011;7656;51.954;7.998;2023-02-10T16:23:33;23.97;;;13.53;;
15110;SDS011;7656;51.954;7.998;2023-02-10T16:27:54;21.10;;;12.67;;
15110;SDS011;7656;51.954;7.998;2023-02-10T16:32:16;23.90;;;13.23;;
15110;SDS011;7656;51.954;7.998;2023-02-10T16:36:37;20.03;;;12.20;;
15110;SDS011;7656;51.954;7.998;2023-02-10T16:40:59;21.83;;;12.57;;
15110;SDS011;7656;51.954;7.998;2023-02-10T16:45:21;23.83;;;12.90;;
15110;SDS011;7656;51.954;7.998;2023-02-10T16:49:45;24.47;;;13.47;;
15110;SDS011;7656;51.954;7.998;2023-02-10T16:54:07;25.13;;;13.80;;
15110;SDS011;7656;51.954;7.998;2023-02-10T16:58:29;25.30;;;14.10;;
15110;SDS011;7656;51.954;7.998;2023-02-10T17:02:51;30.07;;;16.10;;
15110;SDS011;7656;51.954;7.998;2023-02-10T17:07:12;26.23;;;14.10;;
15110;SDS011;7656;51.954;7.998;2023-02-10T17:11:34;21.93;;;12.47;;
15110;SDS011;7656;51.954;7.998;2023-02-10T17:15:55;22.73;;;12.47;;
15110;SDS011;7656;51.954;7.998;2023-02-10T17:20:21;21.10;;;11.97;;
15110;SDS011;7656;51.954;7.998;2023-02-10T17:24:45;21.57;;;10.67;;
15110;SDS011;7656;51.954;7.998;2023-02-10T17:29:08;20.00;;;11.33;;
15110;SDS011;7656;51.954;7.998;2023-02-10T17:33:29;19.27;;;11.20;;
15110;SDS011;7656;51.954;7.998;2023-02-10T17:37:50;20.40;;;10.77;;
15110;SDS011;7656;51.954;7.998;2023-02-10T17:42:30;23.37;;;11.73;;
15110;SDS011;7656;51.954;7.998;2023-02-10T17:46:51;18.10;;;11.20;;
15110;SDS011;7656;51.954;7.998;2023-02-10T17:51:19;20.53;;;12.00;;
15110;SDS011;7656;51.954;7.998;2023-02-10T17:55:42;20.23;;;10.80;;
15110;SDS011;7656;51.954;7.998;2023-02-10T18:00:03;19.77;;;11.90;;
15110;SDS011;7656;51.954;7.998;2023-02-10T18:04:33;21.70;;;10.90;;
15110;SDS011;7656;51.954;7.998;2023-02-10T18:08:54;19.50;;;10.13;;
15110;SDS011;7656;51.954;7.998;2023-02-10T18:13:17;21.17;;;11.07;;
15110;SDS011;7656;51.954;7.998;2023-02-10T18:17:38;21.07;;;11.03;;
15110;SDS011;7656;51.954;7.998;2023-02-10T18:22:02;25.43;;;11.63;;
15110;SDS011;7656;51.954;7.998;2023-02-10T18:26:23;24.00;;;12.57;;
15110;SDS011;7656;51.954;7.998;2023-02-10T18:30:45;20.47;;;11.53;;
15110;SDS011;7656;51.954;7.998;2023-02-10T18:35:12;21.97;;;12.57;;
15110;SDS011;7656;51.954;7.998;2023-02-10T18:39:34;25.73;;;13.10;;
15110;SDS011;7656;51.954;7.998;2023-02-10T18:43:55;22.60;;;12.87;;
15110;SDS011;7656;51.954;7.998;2023-02-10T18:48:17;29.47;;;15.43;;
15110;SDS011;7656;51.954;7.998;2023-02-10T18:52:39;24.10;;;14.63;;
15110;SDS011;7656;51.954;7.998;2023-02-10T18:57:00;24.27;;;12.33;;
15110;SDS011;7656;51.954;7.998;2023-02-10T19:01:22;23.60;;;15.23;;
15110;SDS011;7656;51.954;7.998;2023-02-10T19:05:45;25.80;;;12.77;;
15110;SDS011;7656;51.954;7.998;2023-02-10T19:10:06;26.97;;;15.90;;
15110;SDS011;7656;51.954;7.998;2023-02-10T19:14:27;32.53;;;16.20;;
15110;SDS011;7656;51.954;7.998;2023-02-10T19:18:50;27.80;;;14.80;;
15110;SDS011;7656;51.954;7.998;2023-02-10T19:23:11;26.53;;;14.17;;
15110;SDS011;7656;51.954;7.998;2023-02-10T19:27:32;31.37;;;15.83;;
15110;SDS011;7656;51.954;7.998;2023-02-10T19:31:53;29.03;;;15.03;;
15110;SDS011;7656;51.954;7.998;2023-02-10T19:36:15;27.13;;;13.60;;
15110;SDS011;7656;51.954;7.998;2023-02-10T19:40:39;26.17;;;13.93;;
15110;SDS011;7656;51.954;7.998;2023-02-10T19:45:00;35.83;;;15.97;;
15110;SDS011;7656;51.954;7.998;2023-02-10T19:49:22;24.87;;;14.83;;
15110;SDS011;7656;51.954;7.998;2023-02-10T19:53:43;28.17;;;15.13;;
15110;SDS011;7656;51.954;7.998;2023-02-10T19:58:05;25.53;;;15.77;;
15110;SDS011;7656;51.954;7.998;2023-02-10T20:02:27;26.70;;;16.30;;
15110;SDS011;7656;51.954;7.998;2023-02-10T20:06:48;31.20;;;16.83;;
15110;SDS011;7656;51.954;7.998;2023-02-10T20:11:13;30.50;;;16.80;;
15110;SDS011;7656;51.954;7.998;2023-02-10T20:15:35;27.93;;;16.97;;
15110;SDS011;7656;51.954;7.998;2023-02-10T20:19:57;26.67;;;15.93;;
15110;SDS011;7656;51.954;7.998;2023-02-10T20:24:18;26.50;;;15.97;;
15110;SDS011;7656;51.954;7.998;2023-02-10T20:28:39;26.00;;;15.43;;
15110;SDS011;7656;51.954;7.998;2023-02-10T20:33:00;27.67;;;14.70;;
15110;SDS011;7656;51.954;7.998;2023-02-10T20:37:21;26.50;;;15.13;;
15110;SDS011;7656;51.954;7.998;2023-02-10T20:41:42;24.60;;;13.20;;
15110;SDS011;7656;51.954;7.998;2023-02-10T20:46:05;23.20;;;12.97;;
15110;SDS011;7656;51.954;7.998;2023-02-10T20:50:28;23.50;;;13.97;;
15110;SDS011;7656;51.954;7.998;2023-02-10T20:54:49;23.60;;;13.87;;
15110;SDS011;7656;51.954;7.998;2023-02-10T20:59:10;29.43;;;14.03;;
15110;SDS011;7656;51.954;7.998;2023-02-10T21:03:31;24.73;;;14.03;;
15110;SDS011;7656;51.954;7.998;2023-02-10T21:07:54;22.03;;;12.67;;
15110;SDS011;7656;51.954;7.998;2023-02-10T21:12:15;23.80;;;13.83;;
15110;SDS011;7656;51.954;7.998;2023-02-10T21:16:39;23.07;;;14.27;;
15110;SDS011;7656;51.954;7.998;2023-02-10T21:21:00;25.33;;;15.33;;
15110;SDS011;7656;51.954;7.998;2023-02-10T21:25:24;27.53;;;15.13;;
15110;SDS011;7656;51.954;7.998;2023-02-10T21:29:46;32.40;;;16.10;;
15110;SDS011;7656;51.954;7.998;2023-02-10T21:34:07;26.53;;;14.93;;
15110;SDS011;7656;51.954;7.998;2023-02-10T21:38:34;25.37;;;14.77;;
15110;SDS011;7656;51.954;7.998;2023-02-10T21:42:55;26.03;;;13.63;;
15110;SDS011;7656;51.954;7.998;2023-02-10T21:47:16;26.37;;;15.00;;
15110;SDS011;7656;51.954;7.998;2023-02-10T21:51:37;28.50;;;15.50;;
15110;SDS011;7656;51.954;7.998;2023-02-10T21:56:02;28.97;;;15.10;;
15110;SDS011;7656;51.954;7.998;2023-02-10T22:00:24;29.57;;;16.67;;
15110;SDS011;7656;51.954;7.998;2023-02-10T22:04:45;26.77;;;16.50;;
15110;SDS011;7656;51.954;7.998;2023-02-10T22:09:07;28.43;;;16.20;;
15110;SDS011;7656;51.954;7.998;2023-02-10T22:13:34;35.80;;;16.20;;
15110;SDS011;7656;51.954;7.998;2023-02-10T22:17:58;30.37;;;17.47;;
15110;SDS011;7656;51.954;7.998;2023-02-10T22:22:19;28.97;;;16.67;;
15110;SDS011;7656;51.954;7.998;2023-02-10T22:26:40;31.30;;;16.30;;
15110;SDS011;7656;51.954;7.998;2023-02-10T22:31:05;33.57;;;16.53;;
15110;SDS011;7656;51.954;7.998;2023-02-10T22:35:27;29.13;;;16.10;;
15110;SDS011;7656;51.954;7.998;2023-02-10T22:39:48;35.70;;;17.20;;
15110;SDS011;7656;51.954;7.998;2023-02-10T22:44:10;34.30;;;17.73;;
15110;SDS011;7656;51.954;7.998;2023-02-10T22:48:34;33.47;;;17.03;;
15110;SDS011;7656;51.954;7.998;2023-02-10T22:52:56;34.53;;;17.27;;
15110;SDS011;7656;51.954;7.998;2023-02-10T22:57:17;36.00;;;17.30;;
15110;SDS011;7656;51.954;7.998;2023-02-10T23:01:40;36.20;;;17.80;;
15110;SDS011;7656;51.954;7.998;2023-02-10T23:06:03;30.10;;;16.40;;
15110;SDS011;7656;51.954;7.998;2023-02-10T23:10:24;31.90;;;17.50;;
15110;SDS011;7656;51.954;7.998;2023-02-10T23:14:47;34.90;;;16.87;;
15110;SDS011;7656;51.954;7.998;2023-02-10T23:19:08;29.60;;;16.17;;
15110;SDS011;7656;51.954;7.998;2023-02-10T23:23:30;34.80;;;17.80;;
15110;SDS011;7656;51.954;7.998;2023-02-10T23:27:51;30.30;;;16.47;;
15110;SDS011;7656;51.954;7.998;2023-02-10T23:32:12;32.00;;;16.73;;
15110;SDS011;7656;51.954;7.998;2023-02-10T23:36:33;29.83;;;15.77;;
15110;SDS011;7656;51.954;7.998;2023-02-10T23:40:54;35.17;;;17.33;;
15110;SDS011;7656;51.954;7.998;2023-02-10T23:45:15;30.13;;;15.70;;
15110;SDS011;7656;51.954;7.998;2023-02-10T23:49:36;28.20;;;16.23;;
15110;SDS011;7656;51.954;7.998;2023-02-10T23:53:57;31.67;;;15.23;;
15110;SDS011;7656;51.954;7.998;2023-02-10T23:58:18;28.67;;;15.20;;
